createdAt,value
2023-02-13T05:06:37.378Z,3.42
2023-02-13T06:08:27.136Z,3.79
2023-02-13T06:14:29.403Z,3.97
2023-02-13T06:20:31.602Z,4.07
2023-02-13T06:26:34.987Z,3.96
2023-02-13T06:32:38.716Z,3.87
2023-02-13T06:38:41.740Z,4.62
2023-02-13T06:44:43.803Z,5.00
2023-02-13T06:50:47.208Z,5.14
2023-02-13T06:56:49.335Z,4.76
2023-02-13T07:02:51.477Z,5.37
2023-02-13T07:08:56.330Z,6.04
2023-02-13T07:14:59.661Z,5.63
2023-02-13T07:21:01.782Z,5.82
2023-02-13T07:27:05.671Z,5.84
2023-02-13T07:33:10.025Z,6.09
2023-02-13T07:39:15.686Z,6.20
2023-02-13T07:45:18.566Z,6.38
2023-02-13T07:51:20.988Z,6.55
2023-02-13T07:57:24.071Z,6.62
2023-02-13T08:03:26.482Z,6.85
2023-02-13T08:09:47.087Z,6.91
2023-02-13T08:15:49.404Z,6.94
2023-02-13T08:21:52.099Z,6.85
2023-02-13T08:27:54.235Z,6.72
2023-02-13T08:33:57.604Z,7.26
2023-02-13T08:39:59.784Z,7.32
2023-02-13T08:46:01.977Z,7.58
2023-02-13T08:52:04.786Z,7.29
2023-02-13T08:58:06.849Z,7.52
2023-02-13T09:04:09.098Z,7.83
2023-02-13T09:10:14.157Z,8.24
2023-02-13T09:16:16.689Z,8.08
2023-02-13T09:22:21.294Z,7.94
2023-02-13T09:28:23.788Z,8.75
2023-02-13T09:34:26.898Z,8.44
2023-02-13T09:40:39.722Z,8.72
2023-02-13T09:46:44.346Z,9.10
2023-02-13T09:52:53.823Z,9.04
2023-02-13T09:59:06.637Z,8.89
2023-02-13T10:05:37.450Z,9.15
2023-02-13T10:12:22.740Z,8.57
2023-02-13T10:18:34.505Z,8.98
2023-02-13T10:24:42.660Z,9.03
2023-02-13T10:30:56.944Z,8.93
2023-02-13T10:37:00.029Z,8.89
2023-02-13T10:43:09.190Z,9.37
2023-02-13T10:49:14.139Z,9.14
2023-02-13T10:55:29.067Z,9.20
2023-02-13T11:01:46.650Z,9.46
2023-02-13T11:07:49.439Z,9.50
2023-02-13T11:14:23.253Z,9.88
2023-02-13T11:20:31.216Z,9.72
2023-02-13T11:26:36.140Z,9.92
2023-02-13T11:32:38.576Z,9.79
2023-02-13T11:38:41.777Z,9.99
2023-02-13T11:44:51.023Z,10.18
2023-02-13T11:50:56.801Z,10.49
2023-02-13T11:57:26.495Z,10.50
2023-02-13T12:03:32.587Z,10.33
2023-02-13T12:09:39.855Z,10.72
2023-02-13T12:15:44.485Z,10.80
2023-02-13T12:21:54.789Z,11.10
2023-02-13T12:28:16.924Z,11.04
2023-02-13T12:34:25.012Z,10.94
2023-02-13T12:40:58.551Z,10.76
2023-02-13T12:47:42.935Z,10.90
2023-02-13T12:53:48.021Z,10.65
2023-02-13T13:00:18.732Z,11.04
2023-02-13T13:06:58.033Z,11.05
2023-02-13T13:13:12.835Z,10.93
2023-02-13T13:19:29.928Z,10.96
2023-02-13T13:25:38.322Z,11.20
2023-02-13T13:31:40.948Z,10.55
2023-02-13T13:37:46.571Z,10.68
2023-02-13T13:44:04.588Z,10.68
2023-02-13T13:50:19.483Z,10.66
2023-02-13T13:56:21.512Z,10.57
2023-02-13T14:02:23.855Z,10.47
2023-02-13T14:08:47.148Z,10.51
2023-02-13T14:14:49.382Z,10.11
2023-02-13T14:20:59.086Z,9.99
2023-02-13T14:27:06.313Z,9.84
2023-02-13T14:33:27.344Z,9.88
2023-02-13T14:39:42.175Z,9.89
2023-02-13T14:46:04.777Z,9.94
2023-02-13T14:52:13.899Z,9.87
2023-02-13T14:58:37.192Z,9.68
2023-02-13T15:04:47.241Z,9.85
2023-02-13T15:10:52.354Z,9.68
2023-02-13T15:16:59.655Z,9.55
2023-02-13T15:23:02.616Z,9.55
2023-02-13T15:29:25.831Z,9.23
2023-02-13T15:35:37.346Z,9.18
2023-02-13T15:41:47.534Z,8.97
2023-02-13T15:47:50.537Z,8.87
2023-02-13T15:54:04.045Z,9.10
2023-02-13T16:00:07.864Z,9.15
2023-02-13T16:06:17.079Z,8.98
2023-02-13T16:12:28.979Z,9.06
2023-02-13T16:18:32.653Z,9.20
2023-02-13T16:24:36.515Z,9.18
2023-02-13T16:30:45.219Z,9.11
2023-02-13T16:36:47.412Z,9.00
2023-02-13T16:42:49.413Z,8.92
2023-02-13T16:48:58.868Z,8.85
2023-02-13T16:55:06.461Z,8.74
2023-02-13T17:01:15.815Z,8.78
2023-02-13T17:07:22.081Z,8.76
2023-02-13T17:13:25.393Z,8.85
2023-02-13T17:19:31.181Z,8.65
2023-02-13T17:25:39.789Z,8.50
2023-02-13T17:31:44.286Z,8.68
2023-02-13T17:37:46.456Z,8.72
2023-02-13T17:43:48.653Z,8.44
2023-02-13T17:49:59.141Z,8.23
2023-02-13T17:56:07.008Z,8.18
2023-02-13T18:02:21.692Z,8.01
2023-02-13T18:08:24.778Z,7.81
2023-02-13T18:14:31.136Z,7.66
2023-02-13T18:20:34.796Z,7.58
2023-02-13T18:26:37.260Z,7.11
2023-02-13T18:32:39.412Z,7.39
2023-02-13T18:38:42.952Z,7.32
2023-02-13T18:44:44.995Z,7.34
2023-02-13T18:50:48.257Z,7.35
2023-02-13T18:56:50.382Z,7.16
2023-02-13T19:02:53.326Z,7.00
2023-02-13T19:08:56.378Z,7.02
2023-02-13T19:14:58.414Z,6.75
2023-02-13T19:21:02.350Z,6.85
2023-02-13T19:27:05.957Z,6.94
2023-02-13T19:33:08.176Z,6.64
2023-02-13T19:39:12.589Z,6.59
2023-02-13T19:45:14.836Z,6.48
2023-02-13T19:51:19.886Z,6.40
2023-02-13T19:57:22.119Z,6.23
2023-02-13T20:03:24.205Z,6.19
2023-02-13T20:09:27.445Z,6.35
2023-02-13T20:15:32.057Z,6.35
2023-02-13T20:21:35.481Z,6.30
2023-02-13T20:27:42.412Z,6.35
2023-02-13T20:33:45.906Z,6.20
2023-02-13T20:39:48.183Z,5.99
2023-02-13T20:45:51.299Z,6.00
2023-02-13T20:51:53.768Z,6.01
2023-02-13T20:57:56.009Z,6.23
2023-02-13T21:04:00.070Z,6.52
2023-02-13T21:10:02.189Z,6.63
2023-02-13T21:16:13.945Z,6.52
2023-02-13T21:22:16.088Z,6.42
2023-02-13T21:28:21.234Z,6.52
2023-02-13T21:34:23.984Z,6.21
2023-02-13T21:40:26.161Z,6.13
2023-02-13T21:46:30.367Z,6.06
2023-02-13T21:52:32.428Z,6.07
2023-02-13T21:58:36.175Z,5.89
2023-02-13T22:04:38.312Z,6.03
2023-02-13T22:10:40.524Z,5.73
2023-02-13T22:16:43.996Z,5.81
2023-02-13T22:22:46.266Z,5.66
2023-02-13T22:28:48.588Z,5.66
2023-02-13T22:34:52.085Z,5.40
2023-02-13T22:40:54.200Z,5.17
2023-02-13T22:46:56.513Z,5.30
2023-02-13T22:52:59.751Z,5.31
2023-02-13T22:59:01.974Z,5.26
2023-02-13T23:05:04.096Z,5.15
2023-02-13T23:11:27.436Z,5.17
2023-02-13T23:17:48.803Z,5.09
2023-02-13T23:23:51.464Z,5.06
2023-02-13T23:29:54.105Z,4.86
2023-02-13T23:35:56.838Z,4.83
2023-02-13T23:41:59.087Z,4.62
2023-02-13T23:48:01.261Z,4.90
2023-02-13T23:54:04.880Z,4.76
